createdAt,value
2023-05-19T00:01:49.648Z,102400.94
2023-05-19T00:04:16.595Z,102400.13
2023-05-19T00:06:44.738Z,102395.69
2023-05-19T00:09:12.047Z,102396.94
2023-05-19T00:11:39.796Z,102407.25
2023-05-19T00:14:08.473Z,102393.03
2023-05-19T00:16:37.837Z,102395.44
2023-05-19T00:19:06.422Z,102393.50
2023-05-19T00:21:33.000Z,102401.28
2023-05-19T00:23:59.448Z,102403.00
2023-05-19T00:26:27.476Z,102402.22
2023-05-19T00:28:59.669Z,102394.19
2023-05-19T00:31:26.237Z,102401.88
2023-05-19T00:33:52.801Z,102398.66
2023-05-19T00:36:19.335Z,102395.44
2023-05-19T00:38:45.826Z,102402.47
2023-05-19T00:41:12.490Z,102397.66
2023-05-19T00:43:38.932Z,102395.56
2023-05-19T00:46:05.496Z,102388.34
2023-05-19T00:48:32.261Z,102389.50
2023-05-19T00:51:04.303Z,102394.44
2023-05-19T00:53:33.544Z,102395.34
2023-05-19T00:56:01.712Z,102399.13
2023-05-19T00:58:30.282Z,102395.00
2023-05-19T01:01:03.829Z,102395.13
2023-05-19T01:03:35.610Z,102400.09
2023-05-19T01:06:05.178Z,102401.31
2023-05-19T01:08:37.153Z,102393.97
2023-05-19T01:11:07.857Z,102388.84
2023-05-19T01:13:36.077Z,102394.56
2023-05-19T01:16:17.559Z,102389.75
2023-05-19T01:19:01.889Z,102390.22
2023-05-19T01:21:47.854Z,102399.06
2023-05-19T01:24:45.131Z,102399.50
2023-05-19T01:27:37.060Z,102395.03
2023-05-19T01:30:29.010Z,102386.91
2023-05-19T01:33:00.772Z,102397.22
2023-05-19T01:35:28.580Z,102400.44
2023-05-19T01:37:58.662Z,102398.81
2023-05-19T01:40:26.759Z,102393.09
2023-05-19T01:42:57.514Z,102392.41
2023-05-19T01:45:26.581Z,102401.81
2023-05-19T01:47:59.470Z,102390.94
2023-05-19T01:50:26.603Z,102395.75
2023-05-19T01:52:53.675Z,102397.00
2023-05-19T01:55:22.828Z,102390.09
2023-05-19T01:58:00.612Z,102397.44
2023-05-19T02:00:51.480Z,102395.16
2023-05-19T02:03:36.351Z,102398.94
2023-05-19T02:06:42.496Z,102396.19
2023-05-19T02:09:18.523Z,102398.59
2023-05-19T02:12:06.055Z,102396.78
2023-05-19T02:14:59.053Z,102390.59
2023-05-19T02:17:29.121Z,102394.25
2023-05-19T02:19:55.855Z,102387.03
2023-05-19T02:22:22.704Z,102396.78
2023-05-19T02:24:51.577Z,102392.28
2023-05-19T02:27:18.584Z,102396.53
2023-05-19T02:29:45.108Z,102390.78
2023-05-19T02:32:11.729Z,102385.97
2023-05-19T02:34:39.796Z,102384.41
2023-05-19T02:37:07.757Z,102390.47
2023-05-19T02:39:35.250Z,102394.22
2023-05-19T02:42:01.829Z,102383.56
2023-05-19T02:44:28.342Z,102386.88
2023-05-19T02:46:54.934Z,102386.09
2023-05-19T02:49:21.947Z,102378.75
2023-05-19T02:51:48.404Z,102377.25
2023-05-19T02:54:14.979Z,102376.81
2023-05-19T02:56:41.514Z,102370.84
2023-05-19T02:59:07.997Z,102382.97
2023-05-19T03:01:34.611Z,102374.84
2023-05-19T03:04:01.243Z,102369.25
2023-05-19T03:06:28.193Z,102373.38
2023-05-19T03:08:54.765Z,102364.88
2023-05-19T03:11:23.118Z,102362.00
2023-05-19T03:13:49.638Z,102368.19
2023-05-19T03:16:16.225Z,102371.44
2023-05-19T03:18:43.208Z,102371.44
2023-05-19T03:21:09.714Z,102359.59
2023-05-19T03:23:36.264Z,102366.63
2023-05-19T03:26:04.194Z,102358.59
2023-05-19T03:28:30.824Z,102357.31
2023-05-19T03:30:57.309Z,102360.19
2023-05-19T03:33:29.793Z,102363.94
2023-05-19T03:35:57.427Z,102368.44
2023-05-19T03:38:23.892Z,102372.53
2023-05-19T03:40:56.054Z,102369.66
2023-05-19T03:43:22.558Z,102376.31
2023-05-19T03:45:54.946Z,102365.75
2023-05-19T03:48:44.986Z,102375.63
2023-05-19T03:51:30.211Z,102369.91
2023-05-19T03:54:05.988Z,102378.94
2023-05-19T03:56:32.866Z,102371.25
2023-05-19T03:58:59.498Z,102370.47
2023-05-19T04:01:26.030Z,102363.47
2023-05-19T04:03:52.560Z,102377.44
2023-05-19T04:06:19.129Z,102374.56
2023-05-19T04:08:45.832Z,102377.44
2023-05-19T04:11:12.760Z,102375.81
2023-05-19T04:13:39.213Z,102370.22
2023-05-19T04:16:06.474Z,102361.41
2023-05-19T04:18:33.283Z,102384.06
2023-05-19T04:20:59.798Z,102376.38
2023-05-19T04:23:26.391Z,102382.44
2023-05-19T04:25:54.231Z,102379.25
2023-05-19T04:28:21.559Z,102386.13
2023-05-19T04:30:48.095Z,102389.78
2023-05-19T04:33:14.574Z,102378.91
2023-05-19T04:35:43.748Z,102385.69
2023-05-19T04:38:12.057Z,102387.28
2023-05-19T04:40:40.468Z,102384.06
2023-05-19T04:43:09.396Z,102392.53
2023-05-19T04:45:37.602Z,102392.19
2023-05-19T04:48:05.120Z,102401.94
2023-05-19T04:50:32.377Z,102392.19
2023-05-19T04:52:59.751Z,102393.69
2023-05-19T04:55:27.091Z,102388.88
2023-05-19T04:57:53.628Z,102389.09
2023-05-19T05:00:21.320Z,102394.38
2023-05-19T05:02:57.633Z,102391.53
2023-05-19T05:05:25.874Z,102386.16
2023-05-19T05:07:54.023Z,102393.47
2023-05-19T05:10:22.647Z,102377.91
2023-05-19T05:12:49.750Z,102388.56
2023-05-19T05:15:16.633Z,102382.75
2023-05-19T05:17:45.091Z,102387.22
2023-05-19T05:20:12.700Z,102386.28
2023-05-19T05:22:39.537Z,102385.75
2023-05-19T05:25:08.036Z,102384.13
2023-05-19T05:27:35.221Z,102391.34
2023-05-19T05:30:05.330Z,102392.84
2023-05-19T05:32:32.098Z,102386.31
2023-05-19T05:35:00.479Z,102396.06
2023-05-19T05:37:27.004Z,102389.41
2023-05-19T05:39:53.515Z,102392.72
2023-05-19T05:42:20.276Z,102388.50
2023-05-19T05:44:48.031Z,102391.25
2023-05-19T05:47:15.333Z,102394.00
2023-05-19T05:49:42.133Z,102397.22
2023-05-19T05:52:12.130Z,102400.44
2023-05-19T05:54:44.301Z,102386.56
2023-05-19T05:57:13.029Z,102393.00
2023-05-19T05:59:40.935Z,102395.28
2023-05-19T06:02:08.466Z,102386.22
2023-05-19T06:04:35.616Z,102386.91
2023-05-19T06:07:04.219Z,102388.41
2023-05-19T06:09:34.588Z,102390.47
2023-05-19T06:12:02.605Z,102391.13
2023-05-19T06:14:34.181Z,102392.16
2023-05-19T06:17:36.252Z,102396.66
2023-05-19T06:20:05.060Z,102393.53
2023-05-19T06:22:31.747Z,102383.69
2023-05-19T06:24:58.385Z,102377.63
2023-05-19T06:27:24.947Z,102388.25
2023-05-19T06:29:51.416Z,102384.94
2023-05-19T06:32:18.016Z,102386.75
2023-05-19T06:34:45.589Z,102385.50
2023-05-19T06:37:14.771Z,102390.19
2023-05-19T06:39:41.262Z,102385.25
2023-05-19T06:42:08.348Z,102392.34
2023-05-19T06:45:07.581Z,102387.31
2023-05-19T06:47:34.374Z,102390.03
2023-05-19T06:50:00.971Z,102383.75
2023-05-19T06:52:32.388Z,102388.44
2023-05-19T06:55:00.632Z,102386.69
2023-05-19T06:57:27.291Z,102384.81
2023-05-19T06:59:53.917Z,102376.44
2023-05-19T07:02:20.564Z,102378.38
2023-05-19T07:04:47.657Z,102378.09
2023-05-19T07:07:16.241Z,102381.31
2023-05-19T07:09:43.486Z,102383.13
2023-05-19T07:12:10.007Z,102377.25
2023-05-19T07:14:38.837Z,102380.31
2023-05-19T07:17:05.624Z,102380.84
2023-05-19T07:19:33.307Z,102373.84
2023-05-19T07:21:59.811Z,102388.72
2023-05-19T07:24:27.516Z,102389.06
2023-05-19T07:26:54.166Z,102392.13
2023-05-19T07:29:20.670Z,102394.06
2023-05-19T07:31:47.187Z,102385.66
2023-05-19T07:34:13.840Z,102390.00
2023-05-19T07:36:40.389Z,102378.81
2023-05-19T07:39:06.892Z,102377.88
2023-05-19T07:41:34.465Z,102387.50
2023-05-19T07:44:07.534Z,102373.13
2023-05-19T07:46:35.600Z,102378.25
2023-05-19T07:49:02.273Z,102385.13
2023-05-19T07:51:28.776Z,102377.31
2023-05-19T07:53:55.292Z,102379.25
2023-05-19T07:56:21.819Z,102378.63
2023-05-19T07:58:48.411Z,102378.16
2023-05-19T08:01:15.129Z,102377.72
2023-05-19T08:03:41.972Z,102382.84
2023-05-19T08:06:08.623Z,102382.06
2023-05-19T08:08:35.367Z,102376.16
2023-05-19T08:11:04.009Z,102378.09
2023-05-19T08:13:31.067Z,102361.63
2023-05-19T08:15:59.859Z,102366.91
2023-05-19T08:18:26.920Z,102370.78
2023-05-19T08:20:53.429Z,102366.97
2023-05-19T08:23:19.941Z,102370.94
2023-05-19T08:25:46.453Z,102365.06
2023-05-19T08:28:13.260Z,102364.59
2023-05-19T08:30:39.738Z,102363.13
2023-05-19T08:33:06.422Z,102368.75
2023-05-19T08:35:32.999Z,102365.72
2023-05-19T08:37:59.977Z,102366.53
2023-05-19T08:40:29.033Z,102363.50
2023-05-19T08:42:55.528Z,102368.94
2023-05-19T08:45:22.006Z,102358.06
2023-05-19T08:47:50.983Z,102353.16
2023-05-19T08:50:24.856Z,102358.75
2023-05-19T08:53:01.540Z,102352.03
2023-05-19T08:55:36.641Z,102345.31
2023-05-19T08:58:04.283Z,102341.81
2023-05-19T09:00:30.987Z,102342.59
2023-05-19T09:03:06.547Z,102345.34
2023-05-19T09:05:45.637Z,102345.97
2023-05-19T09:08:12.634Z,102346.28
2023-05-19T09:10:39.180Z,102325.34
2023-05-19T09:13:06.441Z,102329.66
2023-05-19T09:15:36.687Z,102331.28
2023-05-19T09:18:08.520Z,102332.22
2023-05-19T09:20:45.041Z,102326.78
2023-05-19T09:23:16.816Z,102327.41
2023-05-19T09:25:51.134Z,102332.22
2023-05-19T09:28:29.376Z,102324.72
2023-05-19T09:31:02.472Z,102322.94
2023-05-19T09:33:29.716Z,102326.78
2023-05-19T09:35:56.829Z,102327.44
2023-05-19T09:38:27.393Z,102319.13
2023-05-19T09:40:57.898Z,102322.66
2023-05-19T09:43:27.260Z,102303.28
2023-05-19T09:46:03.911Z,102315.94
2023-05-19T09:48:30.502Z,102314.44
2023-05-19T09:50:57.960Z,102309.50
2023-05-19T09:53:25.430Z,102302.78
2023-05-19T09:55:58.876Z,102306.75
2023-05-19T09:58:26.883Z,102305.31
2023-05-19T10:00:54.713Z,102313.78
2023-05-19T10:03:23.864Z,102305.00
2023-05-19T10:05:51.168Z,102308.16
2023-05-19T10:08:17.954Z,102287.72
2023-05-19T10:10:47.922Z,102293.75
2023-05-19T10:13:16.368Z,102283.66
2023-05-19T10:15:57.109Z,102285.03
2023-05-19T10:18:26.842Z,102282.16
2023-05-19T10:20:54.261Z,102281.03
2023-05-19T10:23:21.048Z,102272.69
2023-05-19T10:25:49.252Z,102267.91
2023-05-19T10:28:18.395Z,102281.78
2023-05-19T10:30:49.349Z,102276.03
2023-05-19T10:33:18.819Z,102267.38
2023-05-19T10:36:12.711Z,102277.41
2023-05-19T10:39:05.849Z,102272.16
2023-05-19T10:41:35.112Z,102272.78
2023-05-19T10:44:21.176Z,102270.19
2023-05-19T10:46:47.778Z,102270.53
2023-05-19T10:49:23.858Z,102261.88
2023-05-19T10:51:52.312Z,102261.19
2023-05-19T10:54:40.700Z,102259.91
2023-05-19T10:57:08.327Z,102263.91
2023-05-19T10:59:39.818Z,102265.59
2023-05-19T11:02:08.132Z,102264.34
2023-05-19T11:04:51.798Z,102254.38
2023-05-19T11:07:20.439Z,102253.41
2023-05-19T11:09:51.795Z,102251.63
2023-05-19T11:12:24.654Z,102250.19
2023-05-19T11:14:55.384Z,102254.97
2023-05-19T11:17:23.647Z,102254.00
2023-05-19T11:19:55.061Z,102245.34
2023-05-19T11:22:28.937Z,102254.28
2023-05-19T11:24:55.874Z,102252.34
2023-05-19T11:27:33.380Z,102252.03
2023-05-19T11:30:15.113Z,102257.13
2023-05-19T11:32:42.840Z,102251.16
2023-05-19T11:35:10.275Z,102252.25
2023-05-19T11:37:37.362Z,102264.88
2023-05-19T11:40:08.937Z,102254.13
2023-05-19T11:42:36.898Z,102247.38
2023-05-19T11:45:04.939Z,102243.50
2023-05-19T11:47:46.001Z,102237.56
2023-05-19T11:50:19.072Z,102232.78
2023-05-19T11:52:46.269Z,102233.66
2023-05-19T11:55:22.067Z,102234.78
2023-05-19T11:58:04.547Z,102235.56
2023-05-19T12:00:39.224Z,102239.56
2023-05-19T12:03:07.267Z,102234.09
2023-05-19T12:05:40.945Z,102235.50
2023-05-19T12:08:08.991Z,102220.56
2023-05-19T12:10:35.838Z,102231.13
2023-05-19T12:13:03.386Z,102220.69
2023-05-19T12:15:31.561Z,102222.75
2023-05-19T12:18:01.881Z,102218.59
2023-05-19T12:20:32.387Z,102217.88
2023-05-19T12:23:00.418Z,102212.41
2023-05-19T12:25:29.036Z,102221.66
2023-05-19T12:28:00.429Z,102219.06
2023-05-19T12:30:28.754Z,102207.03
2023-05-19T12:32:57.776Z,102210.22
2023-05-19T12:35:28.964Z,102207.31
2023-05-19T12:37:55.570Z,102211.59
2023-05-19T12:40:22.595Z,102215.38
2023-05-19T12:42:51.949Z,102217.78
2023-05-19T12:45:20.570Z,102208.41
2023-05-19T12:47:49.288Z,102191.91
2023-05-19T12:50:16.125Z,102194.09
2023-05-19T12:52:47.991Z,102191.50
2023-05-19T12:55:16.436Z,102205.44
2023-05-19T12:57:45.160Z,102196.28
2023-05-19T13:00:17.535Z,102209.53
2023-05-19T13:03:04.975Z,102220.28
2023-05-19T13:05:33.944Z,102215.91
2023-05-19T13:08:09.048Z,102212.19
2023-05-19T13:10:37.851Z,102207.72
2023-05-19T13:13:05.245Z,102212.19
2023-05-19T13:15:37.659Z,102209.91
2023-05-19T13:18:07.171Z,102216.19
2023-05-19T13:20:34.264Z,102208.63
2023-05-19T13:23:01.353Z,102199.63
2023-05-19T13:25:27.869Z,102208.63
2023-05-19T13:27:55.244Z,102205.72
2023-05-19T13:30:21.980Z,102197.84
2023-05-19T13:32:48.484Z,102206.22
2023-05-19T13:35:15.481Z,102196.25
2023-05-19T13:37:42.545Z,102177.16
2023-05-19T13:40:09.973Z,102197.84
2023-05-19T13:42:36.692Z,102187.59
2023-05-19T13:45:03.668Z,102188.91
2023-05-19T13:47:30.254Z,102191.56
2023-05-19T13:49:57.554Z,102187.41
2023-05-19T13:52:24.421Z,102184.50
2023-05-19T13:54:50.912Z,102190.06
2023-05-19T13:57:17.379Z,102190.56
2023-05-19T14:00:00.260Z,102188.06
2023-05-19T14:02:28.057Z,102185.97
2023-05-19T14:04:55.860Z,102184.69
2023-05-19T14:07:22.327Z,102192.63
2023-05-19T14:09:50.965Z,102180.75
2023-05-19T14:12:17.560Z,102184.53
2023-05-19T14:14:44.049Z,102175.84
2023-05-19T14:17:10.744Z,102171.69
2023-05-19T14:19:37.959Z,102169.34
2023-05-19T14:22:04.751Z,102170.72
2023-05-19T14:24:31.328Z,102164.16
2023-05-19T14:26:57.832Z,102161.88
2023-05-19T14:29:24.300Z,102163.44
2023-05-19T14:31:50.817Z,102151.09
2023-05-19T14:34:20.782Z,102157.66
2023-05-19T14:36:47.868Z,102171.38
2023-05-19T14:39:14.421Z,102165.91
2023-05-19T14:41:40.955Z,102172.19
2023-05-19T14:44:07.421Z,102158.03
2023-05-19T14:46:33.977Z,102162.03
2023-05-19T14:49:00.625Z,102159.63
2023-05-19T14:51:27.106Z,102165.19
2023-05-19T14:53:53.900Z,102179.13
2023-05-19T14:56:21.856Z,102174.38
2023-05-19T14:58:48.344Z,102171.75
2023-05-19T15:01:14.850Z,102170.75
2023-05-19T15:03:41.306Z,102167.06
2023-05-19T15:06:11.606Z,102175.25
2023-05-19T15:08:39.182Z,102162.28
2023-05-19T15:11:05.880Z,102168.66
2023-05-19T15:13:32.371Z,102164.47
2023-05-19T15:16:12.546Z,102161.28
2023-05-19T15:18:43.288Z,102159.19
2023-05-19T15:21:09.867Z,102166.84
2023-05-19T15:23:36.389Z,102159.78
2023-05-19T15:26:02.936Z,102158.75
2023-05-19T15:28:29.497Z,102155.38
2023-05-19T15:30:56.032Z,102156.94
2023-05-19T15:33:22.564Z,102168.28
2023-05-19T15:35:51.713Z,102162.56
2023-05-19T15:38:21.252Z,102156.28
2023-05-19T15:40:47.824Z,102161.88
2023-05-19T15:43:14.351Z,102156.88
2023-05-19T15:45:41.000Z,102159.06
2023-05-19T15:48:07.781Z,102158.25
2023-05-19T15:50:34.560Z,102153.31
2023-05-19T15:53:01.366Z,102144.63
2023-05-19T15:55:27.982Z,102153.31
2023-05-19T15:57:54.513Z,102148.63
2023-05-19T16:00:21.457Z,102150.00
2023-05-19T16:02:48.066Z,102153.16
2023-05-19T16:05:14.699Z,102147.66
2023-05-19T16:07:42.112Z,102148.97
2023-05-19T16:10:09.319Z,102142.38
2023-05-19T16:12:36.675Z,102149.53
2023-05-19T16:15:03.477Z,102150.63
2023-05-19T16:17:30.103Z,102147.22
2023-05-19T16:19:56.726Z,102135.13
2023-05-19T16:22:24.770Z,102132.28
2023-05-19T16:24:52.189Z,102122.28
2023-05-19T16:27:18.975Z,102124.22
2023-05-19T16:29:45.561Z,102128.19
2023-05-19T16:32:12.376Z,102136.13
2023-05-19T16:34:38.974Z,102135.88
2023-05-19T16:37:05.445Z,102129.84
2023-05-19T16:39:32.459Z,102126.25
2023-05-19T16:41:58.899Z,102137.34
2023-05-19T16:44:25.627Z,102134.50
2023-05-19T16:46:52.171Z,102125.06
2023-05-19T16:49:18.660Z,102124.81
2023-05-19T16:51:46.735Z,102128.00
2023-05-19T16:54:13.955Z,102131.75
2023-05-19T16:56:40.500Z,102133.88
2023-05-19T16:59:08.909Z,102130.22
2023-05-19T17:01:35.502Z,102127.56
2023-05-19T17:04:02.064Z,102131.81
2023-05-19T17:06:28.675Z,102137.38
2023-05-19T17:08:55.121Z,102120.81
2023-05-19T17:11:21.777Z,102118.19
2023-05-19T17:13:48.280Z,102120.03
2023-05-19T17:16:15.001Z,102119.53
2023-05-19T17:18:41.717Z,102119.28
2023-05-19T17:21:08.238Z,102117.47
2023-05-19T17:23:34.790Z,102126.41
2023-05-19T17:26:01.760Z,102121.91
2023-05-19T17:28:28.346Z,102129.59
2023-05-19T17:30:54.867Z,102124.59
2023-05-19T17:33:21.435Z,102122.50
2023-05-19T17:35:47.945Z,102119.59
2023-05-19T17:38:14.452Z,102125.13
2023-05-19T17:40:42.158Z,102120.38
2023-05-19T17:43:08.810Z,102137.75
2023-05-19T17:45:35.572Z,102130.41
2023-05-19T17:48:02.329Z,102140.41
2023-05-19T17:50:28.871Z,102141.44
2023-05-19T17:52:56.117Z,102139.81
2023-05-19T17:55:24.742Z,102148.25
2023-05-19T17:57:51.363Z,102142.72
2023-05-19T18:00:18.605Z,102145.59
2023-05-19T18:02:45.497Z,102147.41
2023-05-19T18:05:12.706Z,102142.38
2023-05-19T18:07:40.125Z,102144.50
2023-05-19T18:10:08.096Z,102140.25
2023-05-19T18:12:34.649Z,102145.78
2023-05-19T18:15:01.176Z,102141.28
2023-05-19T18:17:27.697Z,102139.13
2023-05-19T18:19:54.529Z,102140.69
2023-05-19T18:22:22.166Z,102146.22
2023-05-19T18:24:48.820Z,102144.00
2023-05-19T18:27:15.271Z,102144.56
2023-05-19T18:29:42.414Z,102147.66
2023-05-19T18:32:09.273Z,102147.91
2023-05-19T18:34:35.830Z,102154.22
2023-05-19T18:37:02.346Z,102148.38
2023-05-19T18:39:29.422Z,102150.97
2023-05-19T18:41:56.059Z,102151.47
2023-05-19T18:44:22.653Z,102150.44
2023-05-19T18:46:49.144Z,102155.66
2023-05-19T18:49:15.750Z,102157.25
2023-05-19T18:51:42.482Z,102159.56
2023-05-19T18:54:09.107Z,102157.69
2023-05-19T18:56:35.682Z,102160.31
2023-05-19T18:59:02.201Z,102164.50
2023-05-19T19:01:29.000Z,102165.56
2023-05-19T19:03:55.750Z,102168.13
2023-05-19T19:06:23.306Z,102167.59
2023-05-19T19:08:50.271Z,102171.50
2023-05-19T19:11:16.920Z,102173.81
2023-05-19T19:13:43.852Z,102174.56
2023-05-19T19:16:11.418Z,102174.28
2023-05-19T19:18:38.141Z,102168.72
2023-05-19T19:21:05.862Z,102178.97
2023-05-19T19:23:32.647Z,102181.81
2023-05-19T19:25:59.193Z,102178.94
2023-05-19T19:28:25.870Z,102183.34
2023-05-19T19:30:52.334Z,102183.56
2023-05-19T19:33:18.915Z,102180.31
2023-05-19T19:35:46.872Z,102180.00
2023-05-19T19:38:13.791Z,102187.31
2023-05-19T19:40:40.440Z,102186.22
2023-05-19T19:43:07.323Z,102193.81
2023-05-19T19:45:34.834Z,102191.63
2023-05-19T19:48:01.673Z,102193.66
2023-05-19T19:50:28.384Z,102192.88
2023-05-19T19:52:54.873Z,102190.13
2023-05-19T19:55:21.619Z,102193.81
2023-05-19T19:57:49.321Z,102202.19
2023-05-19T20:00:16.576Z,102209.47
2023-05-19T20:02:55.715Z,102199.94
2023-05-19T20:05:29.834Z,102208.31
2023-05-19T20:07:56.357Z,102215.91
2023-05-19T20:10:22.848Z,102212.44
2023-05-19T20:12:50.554Z,102202.38
2023-05-19T20:15:17.278Z,102213.13
2023-05-19T20:17:43.851Z,102223.09
2023-05-19T20:20:12.149Z,102226.72
2023-05-19T20:22:39.118Z,102230.91
2023-05-19T20:25:06.177Z,102239.25
2023-05-19T20:27:32.665Z,102232.69
2023-05-19T20:29:59.207Z,102233.69
2023-05-19T20:32:25.802Z,102239.69
2023-05-19T20:34:52.377Z,102235.50
2023-05-19T20:37:18.852Z,102233.91
2023-05-19T20:39:45.364Z,102240.69
2023-05-19T20:42:12.232Z,102249.06
2023-05-19T20:44:38.834Z,102250.56
2023-05-19T20:47:07.945Z,102246.56
2023-05-19T20:49:35.024Z,102251.06
2023-05-19T20:52:01.603Z,102250.47
2023-05-19T20:54:28.212Z,102255.94
2023-05-19T20:56:54.661Z,102247.16
2023-05-19T20:59:21.350Z,102239.31
2023-05-19T21:01:48.310Z,102253.44
2023-05-19T21:04:14.906Z,102247.66
2023-05-19T21:06:41.885Z,102247.25
2023-05-19T21:09:08.707Z,102252.53
2023-05-19T21:11:35.428Z,102261.38
2023-05-19T21:14:03.978Z,102244.56
2023-05-19T21:16:31.271Z,102250.03
2023-05-19T21:18:58.266Z,102254.75
2023-05-19T21:21:26.059Z,102247.84
2023-05-19T21:23:52.576Z,102248.84
2023-05-19T21:26:19.031Z,102244.06
2023-05-19T21:28:45.573Z,102243.78
2023-05-19T21:31:12.278Z,102251.81
2023-05-19T21:33:38.913Z,102255.69
2023-05-19T21:36:05.863Z,102258.00
2023-05-19T21:38:32.356Z,102259.28
2023-05-19T21:40:58.830Z,102259.47
2023-05-19T21:43:25.312Z,102254.41
2023-05-19T21:45:51.749Z,102259.06
2023-05-19T21:48:18.397Z,102264.53
2023-05-19T21:50:45.040Z,102272.59
2023-05-19T21:53:11.508Z,102265.41
2023-05-19T21:55:39.156Z,102266.91
2023-05-19T21:58:05.751Z,102263.72
2023-05-19T22:00:32.414Z,102255.75
2023-05-19T22:02:59.078Z,102269.09
2023-05-19T22:05:25.719Z,102274.22
2023-05-19T22:07:52.221Z,102269.63
2023-05-19T22:10:18.738Z,102265.44
2023-05-19T22:12:45.213Z,102260.69
2023-05-19T22:15:13.259Z,102265.03
2023-05-19T22:17:39.795Z,102262.66
2023-05-19T22:20:06.911Z,102267.78
2023-05-19T22:22:34.056Z,102270.38
2023-05-19T22:25:00.621Z,102277.09
2023-05-19T22:27:27.080Z,102261.56
2023-05-19T22:29:53.541Z,102259.66
2023-05-19T22:32:20.083Z,102272.97
2023-05-19T22:34:46.683Z,102259.00
2023-05-19T22:37:13.283Z,102269.16
2023-05-19T22:39:39.748Z,102273.03
2023-05-19T22:42:06.250Z,102274.00
2023-05-19T22:44:32.777Z,102273.41
2023-05-19T22:46:59.259Z,102271.50
2023-05-19T22:49:27.337Z,102274.53
2023-05-19T22:51:53.840Z,102273.16
2023-05-19T22:54:20.379Z,102277.50
2023-05-19T22:56:49.042Z,102277.16
2023-05-19T22:59:17.914Z,102277.81
2023-05-19T23:01:46.526Z,102278.31
2023-05-19T23:04:13.503Z,102267.75
2023-05-19T23:06:40.003Z,102266.38
2023-05-19T23:09:06.540Z,102254.38
2023-05-19T23:11:33.129Z,102263.03
2023-05-19T23:13:59.692Z,102259.81
2023-05-19T23:16:26.222Z,102269.94
2023-05-19T23:18:52.756Z,102279.06
2023-05-19T23:21:19.334Z,102278.44
2023-05-19T23:23:45.861Z,102281.47
2023-05-19T23:26:13.411Z,102285.03
2023-05-19T23:28:41.813Z,102294.63
2023-05-19T23:31:08.727Z,102290.81
2023-05-19T23:33:35.262Z,102290.81
2023-05-19T23:36:07.646Z,102289.38
2023-05-19T23:38:34.778Z,102295.13
2023-05-19T23:41:02.230Z,102284.25
2023-05-19T23:43:28.914Z,102287.16
2023-05-19T23:45:55.452Z,102284.44
2023-05-19T23:48:21.925Z,102297.69
2023-05-19T23:50:48.445Z,102286.00
2023-05-19T23:53:14.924Z,102283.63
2023-05-19T23:55:42.095Z,102290.34
2023-05-19T23:58:08.600Z,102283.47
